sensor_id;sensor_type;location;lat;lon;timestamp;temperature;humidity
8994;DHT22;4532;50.886;4.700;2022-09-02T00:01:54;22.20;72.50
8994;DHT22;4532;50.886;4.700;2022-09-02T00:04:24;22.20;72.50
8994;DHT22;4532;50.886;4.700;2022-09-02T00:06:53;22.20;72.60
8994;DHT22;4532;50.886;4.700;2022-09-02T00:09:22;22.10;72.50
8994;DHT22;4532;50.886;4.700;2022-09-02T00:11:52;22.10;72.50
8994;DHT22;4532;50.886;4.700;2022-09-02T00:14:29;22.10;72.50
8994;DHT22;4532;50.886;4.700;2022-09-02T00:16:57;22.10;72.70
8994;DHT22;4532;50.886;4.700;2022-09-02T00:19:28;22.10;72.50
8994;DHT22;4532;50.886;4.700;2022-09-02T00:21:58;22.10;72.50
8994;DHT22;4532;50.886;4.700;2022-09-02T00:24:31;22.00;72.70
8994;DHT22;4532;50.886;4.700;2022-09-02T00:27:01;22.10;72.60
8994;DHT22;4532;50.886;4.700;2022-09-02T00:29:33;22.10;72.60
8994;DHT22;4532;50.886;4.700;2022-09-02T00:32:00;22.00;72.50
8994;DHT22;4532;50.886;4.700;2022-09-02T00:34:30;22.00;72.60
8994;DHT22;4532;50.886;4.700;2022-09-02T00:36:58;22.00;72.50
8994;DHT22;4532;50.886;4.700;2022-09-02T00:39:25;22.00;72.60
8994;DHT22;4532;50.886;4.700;2022-09-02T00:41:57;22.00;72.60
8994;DHT22;4532;50.886;4.700;2022-09-02T00:44:24;22.00;73.40
8994;DHT22;4532;50.886;4.700;2022-09-02T00:46:51;21.90;72.60
8994;DHT22;4532;50.886;4.700;2022-09-02T00:49:27;21.90;72.60
8994;DHT22;4532;50.886;4.700;2022-09-02T00:52:10;21.90;72.60
8994;DHT22;4532;50.886;4.700;2022-09-02T00:54:47;21.90;72.80
8994;DHT22;4532;50.886;4.700;2022-09-02T00:57:22;21.90;72.70
8994;DHT22;4532;50.886;4.700;2022-09-02T01:02:35;21.90;72.90
8994;DHT22;4532;50.886;4.700;2022-09-02T01:05:09;21.80;72.60
8994;DHT22;4532;50.886;4.700;2022-09-02T01:07:40;21.80;72.60
8994;DHT22;4532;50.886;4.700;2022-09-02T01:10:18;21.80;72.80
8994;DHT22;4532;50.886;4.700;2022-09-02T01:12:53;21.70;72.60
8994;DHT22;4532;50.886;4.700;2022-09-02T01:15:23;21.70;72.70
8994;DHT22;4532;50.886;4.700;2022-09-02T01:17:51;21.70;72.70
8994;DHT22;4532;50.886;4.700;2022-09-02T01:20:26;21.70;72.70
8994;DHT22;4532;50.886;4.700;2022-09-02T01:22:54;21.70;72.80
8994;DHT22;4532;50.886;4.700;2022-09-02T01:25:26;21.70;72.80
8994;DHT22;4532;50.886;4.700;2022-09-02T01:28:03;21.60;72.80
8994;DHT22;4532;50.886;4.700;2022-09-02T01:30:32;21.60;72.80
8994;DHT22;4532;50.886;4.700;2022-09-02T01:32:59;21.60;72.90
8994;DHT22;4532;50.886;4.700;2022-09-02T01:35:27;21.60;72.70
8994;DHT22;4532;50.886;4.700;2022-09-02T01:38:00;21.60;72.90
8994;DHT22;4532;50.886;4.700;2022-09-02T01:40:29;21.60;72.90
8994;DHT22;4532;50.886;4.700;2022-09-02T01:43:02;21.50;72.90
8994;DHT22;4532;50.886;4.700;2022-09-02T01:45:35;21.50;73.00
8994;DHT22;4532;50.886;4.700;2022-09-02T01:48:04;21.50;73.00
8994;DHT22;4532;50.886;4.700;2022-09-02T01:50:36;21.40;73.00
8994;DHT22;4532;50.886;4.700;2022-09-02T01:53:10;21.40;73.00
8994;DHT22;4532;50.886;4.700;2022-09-02T01:55:39;21.30;72.90
8994;DHT22;4532;50.886;4.700;2022-09-02T01:58:11;21.30;73.10
8994;DHT22;4532;50.886;4.700;2022-09-02T02:00:41;21.30;73.10
8994;DHT22;4532;50.886;4.700;2022-09-02T02:03:09;21.20;73.10
8994;DHT22;4532;50.886;4.700;2022-09-02T02:05:41;21.20;73.20
8994;DHT22;4532;50.886;4.700;2022-09-02T02:08:09;21.20;73.20
8994;DHT22;4532;50.886;4.700;2022-09-02T02:10:38;21.10;73.30
8994;DHT22;4532;50.886;4.700;2022-09-02T02:13:09;21.10;73.20
8994;DHT22;4532;50.886;4.700;2022-09-02T02:15:40;21.10;73.40
8994;DHT22;4532;50.886;4.700;2022-09-02T02:18:11;21.00;73.30
8994;DHT22;4532;50.886;4.700;2022-09-02T02:20:38;21.00;73.30
8994;DHT22;4532;50.886;4.700;2022-09-02T02:23:13;20.90;73.30
8994;DHT22;4532;50.886;4.700;2022-09-02T02:25:40;20.90;73.30
8994;DHT22;4532;50.886;4.700;2022-09-02T02:28:10;20.90;73.40
8994;DHT22;4532;50.886;4.700;2022-09-02T02:30:39;20.80;73.40
8994;DHT22;4532;50.886;4.700;2022-09-02T02:33:07;20.80;73.50
8994;DHT22;4532;50.886;4.700;2022-09-02T02:35:34;20.80;74.00
8994;DHT22;4532;50.886;4.700;2022-09-02T02:38:02;20.70;73.50
8994;DHT22;4532;50.886;4.700;2022-09-02T02:40:34;20.70;73.70
8994;DHT22;4532;50.886;4.700;2022-09-02T02:43:04;20.70;73.60
8994;DHT22;4532;50.886;4.700;2022-09-02T02:45:34;20.70;73.50
8994;DHT22;4532;50.886;4.700;2022-09-02T02:48:01;20.60;73.50
8994;DHT22;4532;50.886;4.700;2022-09-02T02:50:31;20.60;73.70
8994;DHT22;4532;50.886;4.700;2022-09-02T02:52:59;20.60;73.80
8994;DHT22;4532;50.886;4.700;2022-09-02T02:55:29;20.60;73.80
8994;DHT22;4532;50.886;4.700;2022-09-02T02:57:58;20.50;73.80
8994;DHT22;4532;50.886;4.700;2022-09-02T03:00:29;20.50;73.90
8994;DHT22;4532;50.886;4.700;2022-09-02T03:02:59;20.50;74.00
8994;DHT22;4532;50.886;4.700;2022-09-02T03:05:32;20.50;74.00
8994;DHT22;4532;50.886;4.700;2022-09-02T03:08:03;20.50;74.00
8994;DHT22;4532;50.886;4.700;2022-09-02T03:10:31;20.50;74.10
8994;DHT22;4532;50.886;4.700;2022-09-02T03:13:00;20.50;74.20
8994;DHT22;4532;50.886;4.700;2022-09-02T03:15:28;20.40;74.10
8994;DHT22;4532;50.886;4.700;2022-09-02T03:18:00;20.40;74.20
8994;DHT22;4532;50.886;4.700;2022-09-02T03:20:32;20.40;74.10
8994;DHT22;4532;50.886;4.700;2022-09-02T03:23:01;20.40;74.30
8994;DHT22;4532;50.886;4.700;2022-09-02T03:25:30;20.30;74.20
8994;DHT22;4532;50.886;4.700;2022-09-02T03:28:02;20.30;74.30
8994;DHT22;4532;50.886;4.700;2022-09-02T03:30:38;20.30;74.40
8994;DHT22;4532;50.886;4.700;2022-09-02T03:33:10;20.30;74.60
8994;DHT22;4532;50.886;4.700;2022-09-02T03:35:40;20.30;74.60
8994;DHT22;4532;50.886;4.700;2022-09-02T03:38:11;20.30;74.60
8994;DHT22;4532;50.886;4.700;2022-09-02T03:40:40;20.30;74.70
8994;DHT22;4532;50.886;4.700;2022-09-02T03:43:08;20.30;74.70
8994;DHT22;4532;50.886;4.700;2022-09-02T03:45:37;20.30;74.80
8994;DHT22;4532;50.886;4.700;2022-09-02T03:48:11;20.30;74.80
8994;DHT22;4532;50.886;4.700;2022-09-02T03:50:43;20.30;74.90
8994;DHT22;4532;50.886;4.700;2022-09-02T03:53:15;20.30;75.00
8994;DHT22;4532;50.886;4.700;2022-09-02T03:55:48;20.30;74.90
8994;DHT22;4532;50.886;4.700;2022-09-02T03:58:19;20.30;75.00
8994;DHT22;4532;50.886;4.700;2022-09-02T04:00:53;20.30;74.90
8994;DHT22;4532;50.886;4.700;2022-09-02T04:03:20;20.30;75.00
8994;DHT22;4532;50.886;4.700;2022-09-02T04:05:49;20.30;75.10
8994;DHT22;4532;50.886;4.700;2022-09-02T04:08:22;20.30;75.10
8994;DHT22;4532;50.886;4.700;2022-09-02T04:10:51;20.30;75.30
8994;DHT22;4532;50.886;4.700;2022-09-02T04:13:19;20.30;75.30
8994;DHT22;4532;50.886;4.700;2022-09-02T04:15:49;20.30;75.30
8994;DHT22;4532;50.886;4.700;2022-09-02T04:18:17;20.40;75.30
8994;DHT22;4532;50.886;4.700;2022-09-02T04:20:44;20.40;75.40
8994;DHT22;4532;50.886;4.700;2022-09-02T04:23:12;20.40;75.50
8994;DHT22;4532;50.886;4.700;2022-09-02T04:25:45;20.40;75.50
8994;DHT22;4532;50.886;4.700;2022-09-02T04:28:12;20.40;75.60
8994;DHT22;4532;50.886;4.700;2022-09-02T04:30:42;20.40;75.70
8994;DHT22;4532;50.886;4.700;2022-09-02T04:33:15;20.40;75.60
8994;DHT22;4532;50.886;4.700;2022-09-02T04:35:44;20.40;75.70
8994;DHT22;4532;50.886;4.700;2022-09-02T04:38:12;20.40;75.80
8994;DHT22;4532;50.886;4.700;2022-09-02T04:40:41;20.40;75.80
8994;DHT22;4532;50.886;4.700;2022-09-02T04:43:12;20.40;75.90
8994;DHT22;4532;50.886;4.700;2022-09-02T04:45:41;20.40;75.90
8994;DHT22;4532;50.886;4.700;2022-09-02T04:48:09;20.40;76.00
8994;DHT22;4532;50.886;4.700;2022-09-02T04:50:44;20.40;76.00
8994;DHT22;4532;50.886;4.700;2022-09-02T04:53:14;20.40;76.20
8994;DHT22;4532;50.886;4.700;2022-09-02T04:55:46;20.40;76.20
8994;DHT22;4532;50.886;4.700;2022-09-02T04:58:14;20.40;76.10
8994;DHT22;4532;50.886;4.700;2022-09-02T05:00:42;20.40;76.20
8994;DHT22;4532;50.886;4.700;2022-09-02T05:03:09;20.40;76.20
8994;DHT22;4532;50.886;4.700;2022-09-02T05:05:40;20.40;76.30
8994;DHT22;4532;50.886;4.700;2022-09-02T05:08:07;20.40;76.40
8994;DHT22;4532;50.886;4.700;2022-09-02T05:10:34;20.40;76.40
8994;DHT22;4532;50.886;4.700;2022-09-02T05:13:02;20.40;76.30
8994;DHT22;4532;50.886;4.700;2022-09-02T05:15:32;20.40;76.30
8994;DHT22;4532;50.886;4.700;2022-09-02T05:18:01;20.50;76.60
8994;DHT22;4532;50.886;4.700;2022-09-02T05:20:30;20.50;76.70
8994;DHT22;4532;50.886;4.700;2022-09-02T05:22:59;20.50;76.70
8994;DHT22;4532;50.886;4.700;2022-09-02T05:25:28;20.50;76.70
8994;DHT22;4532;50.886;4.700;2022-09-02T05:27:55;20.50;76.80
8994;DHT22;4532;50.886;4.700;2022-09-02T05:30:22;20.50;77.00
8994;DHT22;4532;50.886;4.700;2022-09-02T05:32:49;20.50;77.40
8994;DHT22;4532;50.886;4.700;2022-09-02T05:35:19;20.50;77.60
8994;DHT22;4532;50.886;4.700;2022-09-02T05:37:49;20.50;77.90
8994;DHT22;4532;50.886;4.700;2022-09-02T05:40:17;20.50;78.10
8994;DHT22;4532;50.886;4.700;2022-09-02T05:42:48;20.50;78.30
8994;DHT22;4532;50.886;4.700;2022-09-02T05:45:18;20.40;78.30
8994;DHT22;4532;50.886;4.700;2022-09-02T05:47:52;20.40;78.50
8994;DHT22;4532;50.886;4.700;2022-09-02T05:50:21;20.40;78.40
8994;DHT22;4532;50.886;4.700;2022-09-02T05:52:49;20.40;78.50
8994;DHT22;4532;50.886;4.700;2022-09-02T05:55:19;20.40;78.60
8994;DHT22;4532;50.886;4.700;2022-09-02T05:57:47;20.40;78.90
8994;DHT22;4532;50.886;4.700;2022-09-02T06:00:16;20.40;78.80
8994;DHT22;4532;50.886;4.700;2022-09-02T06:02:46;20.30;78.70
8994;DHT22;4532;50.886;4.700;2022-09-02T06:05:14;20.30;78.80
8994;DHT22;4532;50.886;4.700;2022-09-02T06:07:44;20.30;78.90
8994;DHT22;4532;50.886;4.700;2022-09-02T06:10:14;20.30;79.10
8994;DHT22;4532;50.886;4.700;2022-09-02T06:12:48;20.30;79.20
8994;DHT22;4532;50.886;4.700;2022-09-02T06:15:20;20.30;79.10
8994;DHT22;4532;50.886;4.700;2022-09-02T06:17:51;20.30;78.90
8994;DHT22;4532;50.886;4.700;2022-09-02T06:20:25;20.40;79.10
8994;DHT22;4532;50.886;4.700;2022-09-02T06:22:59;20.40;79.10
8994;DHT22;4532;50.886;4.700;2022-09-02T06:25:29;20.40;79.40
8994;DHT22;4532;50.886;4.700;2022-09-02T06:27:59;20.40;79.30
8994;DHT22;4532;50.886;4.700;2022-09-02T06:30:41;20.40;79.40
8994;DHT22;4532;50.886;4.700;2022-09-02T06:33:13;20.50;79.90
8994;DHT22;4532;50.886;4.700;2022-09-02T06:35:44;20.50;80.10
8994;DHT22;4532;50.886;4.700;2022-09-02T06:38:13;20.50;80.30
8994;DHT22;4532;50.886;4.700;2022-09-02T06:40:48;20.50;80.40
8994;DHT22;4532;50.886;4.700;2022-09-02T06:43:16;20.50;80.70
8994;DHT22;4532;50.886;4.700;2022-09-02T06:45:44;20.60;80.70
8994;DHT22;4532;50.886;4.700;2022-09-02T06:48:12;20.60;80.90
8994;DHT22;4532;50.886;4.700;2022-09-02T06:50:45;20.60;80.90
8994;DHT22;4532;50.886;4.700;2022-09-02T06:53:14;20.70;81.10
8994;DHT22;4532;50.886;4.700;2022-09-02T06:55:46;20.70;81.10
8994;DHT22;4532;50.886;4.700;2022-09-02T06:58:16;20.80;81.20
8994;DHT22;4532;50.886;4.700;2022-09-02T07:00:46;20.80;81.30
8994;DHT22;4532;50.886;4.700;2022-09-02T07:03:15;20.80;81.20
8994;DHT22;4532;50.886;4.700;2022-09-02T07:06:09;20.90;81.10
8994;DHT22;4532;50.886;4.700;2022-09-02T07:08:39;21.00;81.10
8994;DHT22;4532;50.886;4.700;2022-09-02T07:11:18;21.00;81.20
8994;DHT22;4532;50.886;4.700;2022-09-02T07:13:46;21.10;81.60
8994;DHT22;4532;50.886;4.700;2022-09-02T07:16:16;21.20;81.20
8994;DHT22;4532;50.886;4.700;2022-09-02T07:18:53;21.20;81.10
8994;DHT22;4532;50.886;4.700;2022-09-02T07:21:23;21.30;81.10
8994;DHT22;4532;50.886;4.700;2022-09-02T07:23:53;21.30;81.10
8994;DHT22;4532;50.886;4.700;2022-09-02T07:26:21;21.40;81.40
8994;DHT22;4532;50.886;4.700;2022-09-02T07:28:48;21.50;81.50
8994;DHT22;4532;50.886;4.700;2022-09-02T07:31:19;21.50;82.10
8994;DHT22;4532;50.886;4.700;2022-09-02T07:33:46;21.60;81.50
8994;DHT22;4532;50.886;4.700;2022-09-02T07:36:16;21.60;81.40
8994;DHT22;4532;50.886;4.700;2022-09-02T07:38:50;21.70;81.60
8994;DHT22;4532;50.886;4.700;2022-09-02T07:41:17;21.70;81.60
8994;DHT22;4532;50.886;4.700;2022-09-02T07:43:48;21.80;81.50
8994;DHT22;4532;50.886;4.700;2022-09-02T07:46:23;21.90;81.60
8994;DHT22;4532;50.886;4.700;2022-09-02T07:48:55;21.90;81.60
8994;DHT22;4532;50.886;4.700;2022-09-02T07:51:23;22.00;81.70
8994;DHT22;4532;50.886;4.700;2022-09-02T07:53:57;22.10;81.80
8994;DHT22;4532;50.886;4.700;2022-09-02T07:56:27;22.10;81.80
8994;DHT22;4532;50.886;4.700;2022-09-02T07:58:59;22.20;82.00
8994;DHT22;4532;50.886;4.700;2022-09-02T08:01:30;22.20;81.90
8994;DHT22;4532;50.886;4.700;2022-09-02T08:03:58;22.30;82.00
8994;DHT22;4532;50.886;4.700;2022-09-02T08:06:34;22.30;81.90
8994;DHT22;4532;50.886;4.700;2022-09-02T08:09:05;22.40;82.00
8994;DHT22;4532;50.886;4.700;2022-09-02T08:11:44;22.50;82.20
8994;DHT22;4532;50.886;4.700;2022-09-02T08:14:21;22.60;82.40
8994;DHT22;4532;50.886;4.700;2022-09-02T08:16:55;22.60;82.40
8994;DHT22;4532;50.886;4.700;2022-09-02T08:19:25;22.70;82.50
8994;DHT22;4532;50.886;4.700;2022-09-02T08:22:04;22.70;82.70
8994;DHT22;4532;50.886;4.700;2022-09-02T08:24:36;22.70;82.80
8994;DHT22;4532;50.886;4.700;2022-09-02T08:27:05;22.80;82.80
8994;DHT22;4532;50.886;4.700;2022-09-02T08:29:33;22.90;82.80
8994;DHT22;4532;50.886;4.700;2022-09-02T08:32:01;23.00;83.00
8994;DHT22;4532;50.886;4.700;2022-09-02T08:34:31;23.10;83.00
8994;DHT22;4532;50.886;4.700;2022-09-02T08:37:03;23.20;83.10
8994;DHT22;4532;50.886;4.700;2022-09-02T08:39:35;23.20;82.90
8994;DHT22;4532;50.886;4.700;2022-09-02T08:44:50;23.30;83.10
8994;DHT22;4532;50.886;4.700;2022-09-02T08:47:24;23.40;83.00
8994;DHT22;4532;50.886;4.700;2022-09-02T08:49:59;23.50;83.30
8994;DHT22;4532;50.886;4.700;2022-09-02T08:55:50;23.60;83.50
8994;DHT22;4532;50.886;4.700;2022-09-02T08:58:26;23.60;83.50
8994;DHT22;4532;50.886;4.700;2022-09-02T09:06:57;23.80;83.70
8994;DHT22;4532;50.886;4.700;2022-09-02T09:15:24;24.00;84.00
8994;DHT22;4532;50.886;4.700;2022-09-02T09:17:58;24.10;84.00
8994;DHT22;4532;50.886;4.700;2022-09-02T09:20:37;24.10;84.00
8994;DHT22;4532;50.886;4.700;2022-09-02T09:23:17;24.10;83.90
8994;DHT22;4532;50.886;4.700;2022-09-02T09:25:53;24.20;84.00
8994;DHT22;4532;50.886;4.700;2022-09-02T09:28:26;24.30;83.90
8994;DHT22;4532;50.886;4.700;2022-09-02T09:30:54;24.30;84.10
8994;DHT22;4532;50.886;4.700;2022-09-02T09:33:25;24.30;84.20
8994;DHT22;4532;50.886;4.700;2022-09-02T09:35:54;24.40;84.00
8994;DHT22;4532;50.886;4.700;2022-09-02T09:38:30;24.40;84.00
8994;DHT22;4532;50.886;4.700;2022-09-02T09:43:37;24.50;84.10
8994;DHT22;4532;50.886;4.700;2022-09-02T09:46:25;24.60;84.00
8994;DHT22;4532;50.886;4.700;2022-09-02T09:48:56;24.60;83.90
8994;DHT22;4532;50.886;4.700;2022-09-02T09:51:23;24.70;84.00
8994;DHT22;4532;50.886;4.700;2022-09-02T09:53:51;24.70;83.80
8994;DHT22;4532;50.886;4.700;2022-09-02T09:56:26;24.70;83.90
8994;DHT22;4532;50.886;4.700;2022-09-02T09:58:55;24.80;83.40
8994;DHT22;4532;50.886;4.700;2022-09-02T10:01:30;24.80;83.60
8994;DHT22;4532;50.886;4.700;2022-09-02T10:04:10;24.90;83.70
8994;DHT22;4532;50.886;4.700;2022-09-02T10:06:58;25.00;82.90
8994;DHT22;4532;50.886;4.700;2022-09-02T10:09:31;25.00;83.00
8994;DHT22;4532;50.886;4.700;2022-09-02T10:12:11;25.00;82.50
8994;DHT22;4532;50.886;4.700;2022-09-02T10:14:47;25.10;83.00
8994;DHT22;4532;50.886;4.700;2022-09-02T10:17:53;25.20;83.10
8994;DHT22;4532;50.886;4.700;2022-09-02T10:26:24;25.30;82.60
8994;DHT22;4532;50.886;4.700;2022-09-02T10:40:23;25.50;82.80
8994;DHT22;4532;50.886;4.700;2022-09-02T10:43:04;25.60;82.50
8994;DHT22;4532;50.886;4.700;2022-09-02T10:45:53;25.60;82.50
8994;DHT22;4532;50.886;4.700;2022-09-02T10:51:33;25.70;82.00
8994;DHT22;4532;50.886;4.700;2022-09-02T10:54:31;25.70;80.30
8994;DHT22;4532;50.886;4.700;2022-09-02T10:57:25;25.70;81.80
8994;DHT22;4532;50.886;4.700;2022-09-02T11:00:05;25.80;81.90
8994;DHT22;4532;50.886;4.700;2022-09-02T11:02:50;25.80;81.90
8994;DHT22;4532;50.886;4.700;2022-09-02T11:05:28;25.80;81.90
8994;DHT22;4532;50.886;4.700;2022-09-02T11:08:11;25.80;81.40
8994;DHT22;4532;50.886;4.700;2022-09-02T11:10:48;25.90;80.30
8994;DHT22;4532;50.886;4.700;2022-09-02T11:16:04;26.00;81.20
8994;DHT22;4532;50.886;4.700;2022-09-02T11:24:42;26.10;80.60
8994;DHT22;4532;50.886;4.700;2022-09-02T11:30:14;26.20;80.10
8994;DHT22;4532;50.886;4.700;2022-09-02T11:32:54;26.20;80.00
8994;DHT22;4532;50.886;4.700;2022-09-02T11:35:34;26.30;79.80
8994;DHT22;4532;50.886;4.700;2022-09-02T11:43:43;26.30;80.00
8994;DHT22;4532;50.886;4.700;2022-09-02T11:46:33;26.40;79.70
8994;DHT22;4532;50.886;4.700;2022-09-02T11:54:44;26.50;79.10
8994;DHT22;4532;50.886;4.700;2022-09-02T11:57:22;26.50;78.50
8994;DHT22;4532;50.886;4.700;2022-09-02T12:08:10;26.70;73.80
8994;DHT22;4532;50.886;4.700;2022-09-02T12:13:43;26.80;75.30
8994;DHT22;4532;50.886;4.700;2022-09-02T12:21:27;26.80;78.20
8994;DHT22;4532;50.886;4.700;2022-09-02T12:26:29;26.90;77.50
8994;DHT22;4532;50.886;4.700;2022-09-02T12:31:51;27.00;78.30
8994;DHT22;4532;50.886;4.700;2022-09-02T12:36:53;27.10;76.10
8994;DHT22;4532;50.886;4.700;2022-09-02T12:42:02;27.10;77.10
8994;DHT22;4532;50.886;4.700;2022-09-02T12:50:25;27.30;77.70
8994;DHT22;4532;50.886;4.700;2022-09-02T12:56:19;27.40;77.20
8994;DHT22;4532;50.886;4.700;2022-09-02T12:58:51;27.60;75.50
8994;DHT22;4532;50.886;4.700;2022-09-02T13:01:44;27.60;76.60
8994;DHT22;4532;50.886;4.700;2022-09-02T13:33:20;28.30;74.90
8994;DHT22;4532;50.886;4.700;2022-09-02T13:35:53;28.30;75.50
8994;DHT22;4532;50.886;4.700;2022-09-02T13:38:26;28.40;75.30
8994;DHT22;4532;50.886;4.700;2022-09-02T13:40:54;28.40;74.40
8994;DHT22;4532;50.886;4.700;2022-09-02T13:43:25;28.50;73.10
8994;DHT22;4532;50.886;4.700;2022-09-02T13:46:02;28.50;74.00
8994;DHT22;4532;50.886;4.700;2022-09-02T13:48:31;28.60;73.30
8994;DHT22;4532;50.886;4.700;2022-09-02T13:51:17;28.60;73.70
8994;DHT22;4532;50.886;4.700;2022-09-02T13:53:46;28.70;73.70
8994;DHT22;4532;50.886;4.700;2022-09-02T13:56:37;28.70;74.50
8994;DHT22;4532;50.886;4.700;2022-09-02T13:59:06;28.70;75.00
8994;DHT22;4532;50.886;4.700;2022-09-02T14:01:38;28.70;75.10
8994;DHT22;4532;50.886;4.700;2022-09-02T14:04:15;28.80;74.10
8994;DHT22;4532;50.886;4.700;2022-09-02T14:06:44;28.80;74.70
8994;DHT22;4532;50.886;4.700;2022-09-02T14:09:20;28.80;74.40
8994;DHT22;4532;50.886;4.700;2022-09-02T14:11:50;28.80;74.70
8994;DHT22;4532;50.886;4.700;2022-09-02T14:14:23;28.90;74.40
8994;DHT22;4532;50.886;4.700;2022-09-02T14:16:51;28.90;74.40
8994;DHT22;4532;50.886;4.700;2022-09-02T14:21:50;28.90;74.60
8994;DHT22;4532;50.886;4.700;2022-09-02T14:24:24;29.00;74.90
8994;DHT22;4532;50.886;4.700;2022-09-02T14:27:02;29.00;74.40
8994;DHT22;4532;50.886;4.700;2022-09-02T14:29:32;29.10;74.50
8994;DHT22;4532;50.886;4.700;2022-09-02T14:32:14;29.10;74.70
8994;DHT22;4532;50.886;4.700;2022-09-02T14:34:46;29.10;74.30
8994;DHT22;4532;50.886;4.700;2022-09-02T14:37:27;29.10;74.40
8994;DHT22;4532;50.886;4.700;2022-09-02T14:42:47;29.20;70.00
8994;DHT22;4532;50.886;4.700;2022-09-02T14:45:29;29.20;73.30
8994;DHT22;4532;50.886;4.700;2022-09-02T14:48:00;29.30;73.40
8994;DHT22;4532;50.886;4.700;2022-09-02T14:50:32;29.30;73.60
8994;DHT22;4532;50.886;4.700;2022-09-02T14:53:08;29.30;73.60
8994;DHT22;4532;50.886;4.700;2022-09-02T14:55:46;29.40;72.70
8994;DHT22;4532;50.886;4.700;2022-09-02T14:58:15;29.30;73.60
8994;DHT22;4532;50.886;4.700;2022-09-02T15:00:50;29.40;73.60
8994;DHT22;4532;50.886;4.700;2022-09-02T15:03:24;29.40;73.80
8994;DHT22;4532;50.886;4.700;2022-09-02T15:05:52;29.40;72.50
8994;DHT22;4532;50.886;4.700;2022-09-02T15:08:24;29.50;72.20
8994;DHT22;4532;50.886;4.700;2022-09-02T15:10:56;29.50;72.00
8994;DHT22;4532;50.886;4.700;2022-09-02T15:13:33;29.60;72.40
8994;DHT22;4532;50.886;4.700;2022-09-02T15:16:01;29.60;72.20
8994;DHT22;4532;50.886;4.700;2022-09-02T15:18:31;29.70;71.40
8994;DHT22;4532;50.886;4.700;2022-09-02T15:21:01;29.70;71.40
8994;DHT22;4532;50.886;4.700;2022-09-02T15:23:31;29.70;71.20
8994;DHT22;4532;50.886;4.700;2022-09-02T15:26:02;29.80;72.00
8994;DHT22;4532;50.886;4.700;2022-09-02T15:28:29;29.90;70.70
8994;DHT22;4532;50.886;4.700;2022-09-02T15:30:58;29.90;71.90
8994;DHT22;4532;50.886;4.700;2022-09-02T15:33:27;29.90;72.50
8994;DHT22;4532;50.886;4.700;2022-09-02T15:35:54;29.90;72.80
8994;DHT22;4532;50.886;4.700;2022-09-02T15:38:33;30.00;72.70
8994;DHT22;4532;50.886;4.700;2022-09-02T15:43:38;30.00;69.60
8994;DHT22;4532;50.886;4.700;2022-09-02T15:46:35;30.00;72.10
8994;DHT22;4532;50.886;4.700;2022-09-02T15:49:07;30.00;72.70
8994;DHT22;4532;50.886;4.700;2022-09-02T15:51:42;30.00;72.60
8994;DHT22;4532;50.886;4.700;2022-09-02T15:54:13;30.10;72.60
8994;DHT22;4532;50.886;4.700;2022-09-02T15:56:43;30.00;72.60
8994;DHT22;4532;50.886;4.700;2022-09-02T15:59:17;30.10;71.50
8994;DHT22;4532;50.886;4.700;2022-09-02T16:01:50;30.10;70.00
8994;DHT22;4532;50.886;4.700;2022-09-02T16:04:17;30.00;71.20
8994;DHT22;4532;50.886;4.700;2022-09-02T16:06:46;30.00;68.90
8994;DHT22;4532;50.886;4.700;2022-09-02T16:09:16;30.00;69.90
8994;DHT22;4532;50.886;4.700;2022-09-02T16:11:48;29.90;70.60
8994;DHT22;4532;50.886;4.700;2022-09-02T16:14:19;29.90;70.90
8994;DHT22;4532;50.886;4.700;2022-09-02T16:16:51;29.90;71.10
8994;DHT22;4532;50.886;4.700;2022-09-02T16:19:25;29.90;71.30
8994;DHT22;4532;50.886;4.700;2022-09-02T16:21:56;29.90;71.10
8994;DHT22;4532;50.886;4.700;2022-09-02T16:24:24;29.90;71.00
8994;DHT22;4532;50.886;4.700;2022-09-02T16:26:54;29.90;70.60
8994;DHT22;4532;50.886;4.700;2022-09-02T16:29:23;29.90;71.10
8994;DHT22;4532;50.886;4.700;2022-09-02T16:31:57;29.90;71.10
8994;DHT22;4532;50.886;4.700;2022-09-02T16:34:44;29.90;71.00
8994;DHT22;4532;50.886;4.700;2022-09-02T16:37:12;29.90;70.80
8994;DHT22;4532;50.886;4.700;2022-09-02T16:39:42;29.90;71.10
8994;DHT22;4532;50.886;4.700;2022-09-02T16:42:10;30.00;69.10
8994;DHT22;4532;50.886;4.700;2022-09-02T16:44:39;29.90;70.30
8994;DHT22;4532;50.886;4.700;2022-09-02T16:47:07;29.90;70.20
8994;DHT22;4532;50.886;4.700;2022-09-02T16:49:41;29.90;70.40
8994;DHT22;4532;50.886;4.700;2022-09-02T16:52:11;29.90;70.50
8994;DHT22;4532;50.886;4.700;2022-09-02T16:54:39;29.90;70.00
8994;DHT22;4532;50.886;4.700;2022-09-02T16:57:09;29.80;69.60
8994;DHT22;4532;50.886;4.700;2022-09-02T16:59:39;29.80;68.40
8994;DHT22;4532;50.886;4.700;2022-09-02T17:02:06;29.70;69.30
8994;DHT22;4532;50.886;4.700;2022-09-02T17:04:34;29.60;69.50
8994;DHT22;4532;50.886;4.700;2022-09-02T17:07:04;29.60;69.60
8994;DHT22;4532;50.886;4.700;2022-09-02T17:09:31;29.50;69.50
8994;DHT22;4532;50.886;4.700;2022-09-02T17:11:58;29.50;69.60
8994;DHT22;4532;50.886;4.700;2022-09-02T17:14:25;29.50;69.40
8994;DHT22;4532;50.886;4.700;2022-09-02T17:16:53;29.40;69.10
8994;DHT22;4532;50.886;4.700;2022-09-02T17:19:22;29.40;69.60
8994;DHT22;4532;50.886;4.700;2022-09-02T17:21:58;29.30;68.80
8994;DHT22;4532;50.886;4.700;2022-09-02T17:24:26;29.20;68.70
8994;DHT22;4532;50.886;4.700;2022-09-02T17:27:02;29.20;69.10
8994;DHT22;4532;50.886;4.700;2022-09-02T17:29:32;29.10;69.20
8994;DHT22;4532;50.886;4.700;2022-09-02T17:32:18;29.10;69.10
8994;DHT22;4532;50.886;4.700;2022-09-02T17:34:48;29.00;69.00
8994;DHT22;4532;50.886;4.700;2022-09-02T17:37:21;28.90;68.40
8994;DHT22;4532;50.886;4.700;2022-09-02T17:39:53;28.90;68.90
8994;DHT22;4532;50.886;4.700;2022-09-02T17:42:21;28.90;68.80
8994;DHT22;4532;50.886;4.700;2022-09-02T17:44:48;28.80;68.60
8994;DHT22;4532;50.886;4.700;2022-09-02T17:47:20;28.80;68.40
8994;DHT22;4532;50.886;4.700;2022-09-02T17:49:48;28.70;68.60
8994;DHT22;4532;50.886;4.700;2022-09-02T17:52:22;28.80;68.70
8994;DHT22;4532;50.886;4.700;2022-09-02T17:54:51;28.70;68.70
8994;DHT22;4532;50.886;4.700;2022-09-02T17:57:25;28.60;68.20
8994;DHT22;4532;50.886;4.700;2022-09-02T18:00:01;28.60;68.10
8994;DHT22;4532;50.886;4.700;2022-09-02T18:05:16;28.50;68.10
8994;DHT22;4532;50.886;4.700;2022-09-02T18:10:32;28.40;67.80
8994;DHT22;4532;50.886;4.700;2022-09-02T18:13:08;28.30;68.00
8994;DHT22;4532;50.886;4.700;2022-09-02T18:29:54;28.00;67.60
8994;DHT22;4532;50.886;4.700;2022-09-02T18:32:41;27.90;67.40
8994;DHT22;4532;50.886;4.700;2022-09-02T18:41:42;27.70;67.50
8994;DHT22;4532;50.886;4.700;2022-09-02T18:46:55;27.60;67.50
8994;DHT22;4532;50.886;4.700;2022-09-02T18:49:26;27.50;67.20
8994;DHT22;4532;50.886;4.700;2022-09-02T18:52:02;27.50;67.50
8994;DHT22;4532;50.886;4.700;2022-09-02T18:57:08;27.40;67.30
8994;DHT22;4532;50.886;4.700;2022-09-02T19:02:36;27.40;67.40
8994;DHT22;4532;50.886;4.700;2022-09-02T19:05:09;27.30;66.90
8994;DHT22;4532;50.886;4.700;2022-09-02T19:07:38;27.30;67.30
8994;DHT22;4532;50.886;4.700;2022-09-02T19:10:23;27.20;67.10
8994;DHT22;4532;50.886;4.700;2022-09-02T19:12:57;27.20;67.10
8994;DHT22;4532;50.886;4.700;2022-09-02T19:15:28;27.10;67.10
8994;DHT22;4532;50.886;4.700;2022-09-02T19:17:56;27.10;67.00
8994;DHT22;4532;50.886;4.700;2022-09-02T19:20:28;27.10;67.10
8994;DHT22;4532;50.886;4.700;2022-09-02T19:22:56;27.00;66.40
8994;DHT22;4532;50.886;4.700;2022-09-02T19:25:27;27.00;66.80
8994;DHT22;4532;50.886;4.700;2022-09-02T19:27:58;26.90;66.80